Startpagina
METAR-TAF:

METAR-TAF

Vliegvelden :

Luchthaven Jomo Kenyatta Internationaal

Nairobi, Kenia

breedte: 01-19S, lengte: 036-55E, hoogte: 1624 m

Actueel weer

Dit bericht is 46 minuten geleden gemaakt, om 16:30 UTC
Wind 19 kt uit het oostnoordoosten
Temperatuur 23°C
Vochtigheid 73%
Druk 1019 hPa
Zicht: 1000 m
Weinig wolken op 1700 ft
Weinig wolken op 2500 ft, Cumulonimbus.
Gebroken wolken op 6000 ft
zware regenbuien

METAR: HKJK 261630Z 06019KT 1000 +SHRA FEW017 FEW025CB BKN060 23/18 Q1019 BECMG 2000 SHRA FEW016 FEW023CB BKN060

Tijdstip: 20:16 (17:16 UTC)


TAF: ontbreekt

Waarnemingen en weersverwachtingen van meer dan 4000 vliegvelden (METAR en TAF).

De beschikbare stations zijn de gele en rode punten op de kaart.

Ga met uw muis naar het station om de naam te zien.

Klik dan om waarnemingen en weersverwachtingen te zien.

kaart wijzigen: klik op de groene knoppen met een zwart kruis om in te zoomen, op de groene knop met een streepje om uit te zoomen of op de groene pijlen voor aangrenzende kaarten.


METAR-TAF: